Tiempo atmosférico en la estación meteorológica de Cañamero, Cáceres (590 m.)



Fecha
DESCASC
Temp. máxima en grados centígrados (hora)
DESCASC
Temp. mínima en grados centígrados (hora)
DESCASC
Temp. media en grados centígrados
DESCASC
Racha de viento máxima en m/sg (hora)
DESCASC
Velocidad máxima media en intervalos de 10 minutos(hora)
DESCASC
Precipitaciones diarias en mm
DESCASC
Precipitaciones de 00:00 a 06:00 en mm
DESCASC
Precipitaciones de 06:00 a 12:00 en mm
DESCASC
Precipitaciones de 12:00 a 18:00 en mm
DESCASC
Precipitaciones de 18:00 a 24:00 en mm
DESCASC
18-10-2020 23.5 (17:40) 10.9 (00:00) 17.2 6.67 (11:10) 3.33 (10:10) 0 0 0 0 0
17-10-2020 20.5 (16:50) 8.7 (08:00) 14.6 6.67 (13:50) 3.33 (14:30) 0 0 0 0 0
16-10-2020 19.2 (17:10) 7.9 (08:40) 13.6 7.22 (18:00) 3.33 (17:20) 0 0 0 0 0
15-10-2020 19.3 (16:10) 5.3 (00:00) 12.3 5.83 (15:10) 3.33 (16:50) 0 0 0 0 0
14-10-2020 19.6 (16:50) 7 (00:00) 13.3 7.22 (16:40) 4.72 (07:30) 0 0 0 0 0
13-10-2020 24.4 (17:00) 8.4 (00:00) 16.4 9.44 (17:30) 5.56 (17:40) 0 0 0 0 0
12-10-2020 21.3 (16:50) 8.3 (00:00) 14.8 7.22 (03:10) 3.33 (16:30) 0 0 0 0 0
11-10-2020 23.9 (16:10) 12.3 (00:00) 18.1 8.33 (10:40) 4.17 (22:20) 0 0 0 0 0
10-10-2020 28.5 (17:30) 13.9 (00:00) 21.2 6.67 (16:30) 4.17 (16:30) 0 0 0 0 0
09-10-2020 27.6 (14:40) 16.9 (00:00) 22.3 5 (17:50) 3.33 (17:50) 0 0 0 0 0
08-10-2020 28.7 (16:30) 18 (00:00) 23.4 5.83 (18:10) 3.33 (18:10) 0 0 0 0 0
07-10-2020 28 (17:00) 12.6 (00:00) 20.3 4.17 (16:10) 2.22 (23:30) 0 0 0 0 0
06-10-2020 25.7 (18:20) 10.1 (00:00) 17.9 5.56 (16:40) 3.06 (17:40) 0 0 0 0 0
05-10-2020 20.5 (17:50) 9.2 (00:00) 14.8 7.78 (23:40) 4.17 (23:40) 0 0 0 0 0
04-10-2020 18 (18:10) 6.8 (00:00) 12.4 9.72 (16:50) 6.11 (12:20) 0.8 0 0 0.8 0
03-10-2020 17.2 (16:50) 7.2 (00:00) 12.2 11.67 (05:10) 6.39 (05:10) 0 0 0 0 0
02-10-2020 16.1 (12:10) 10.2 (00:00) 13.2 18.06 (12:40) 12.22 (11:20) 4.4 0 3 1.4 0
01-10-2020 23 (16:20) 10.3 (00:00) 16.7 11.39 (16:20) 7.78 (16:20) 0 0 0 0 0
30-09-2020 27.7 (15:40) 14.4 (00:00) 21.1 7.78 (16:00) 4.72 (16:30) 0 0 0 0 0
29-09-2020 28.3 (17:20) 16.4 (00:00) 22.3 5.56 (10:30) 3.33 (18:40) 0 0 0 0 0
28-09-2020 26.3 (17:50) 13.8 (00:00) 20 6.39 (10:10) 3.61 (10:10) 0 0 0 0 0
27-09-2020 24.7 (17:40) 12.1 (00:00) 18.4 10.28 (05:50) 6.11 (02:40) 0 0 0 0 0
26-09-2020 22.7 (17:10) 9.7 (00:00) 16.2 10.56 (21:10) 6.11 (21:20) 0 0 0 0 0
25-09-2020 20.3 (17:50) 11.7 (00:00) 16 11.39 (10:40) 6.67 (12:30) 0 0 0 0 0
24-09-2020 22 (15:30) 15.8 (00:00) 18.9 11.11 (19:20) 7.22 (18:00) 0.4 0 0 0.4 0
23-09-2020 23.4 (16:20) 16 (00:00) 19.7 10 (14:30) 6.39 (19:40) 0 0 0 0 0
22-09-2020 24.7 (16:50) 12.5 (00:00) 18.6 7.5 (16:10) 5 (17:30) 0 0 0 0 0
21-09-2020 24.4 (17:40) 13 (00:00) 18.7 10 (18:00) 5 (18:30) 0 0 0 0 0
20-09-2020 22.5 (18:10) 14.5 (00:00) 18.5 9.44 (16:40) 5.56 (15:40) 0 0 0 0 0

Gráficas

Temp. máximas Temp. mínimas Temp. medias Precipitaciones Rachas de viento máximas Velocidades máximas media en intervalos de 10 minutos

Datos horarios

Fecha y hora oficial Temperatura (ºC) Velocidad del viento (km/h) Dirección del viento Racha (km/h) Dirección de racha Precipitación (mm) Presión (hPa) Tendencia (hPa) Humedad (%)
2020-10-19 23:00:00 20.3 17 Sur 28 Sudoeste 0 -- -- 43
2020-10-19 22:00:00 20.9 12 Sudoeste 23 Sudoeste 0 -- -- 37
2020-10-19 21:00:00 22.1 17 Sudoeste 33 Sudoeste 0 -- -- 33
2020-10-19 20:00:00 22.7 18 Sudoeste 30 Sudoeste 0 -- -- 30
2020-10-19 19:00:00 24.1 12 Sur 27 Sur 0 -- -- 27
2020-10-19 18:00:00 25.2 19 Sur 36 Sur 0 -- -- 25
2020-10-19 17:00:00 25.5 12 Sur 33 Sudeste 0 -- -- 24
2020-10-19 16:00:00 26.3 15 Sur 34 Sur 0 -- -- 24
2020-10-19 15:00:00 24.2 5 Sudeste 15 Sudeste 0 -- -- 27
2020-10-19 14:00:00 22.7 6 Sudeste 15 Sudeste 0 -- -- 29
2020-10-19 13:00:00 21.2 6 Sudeste 20 Este 0 -- -- 30
2020-10-19 12:00:00 19.7 8 Este 19 Este 0 -- -- 32
2020-10-19 11:00:00 17.3 9 Nordeste 22 Nordeste 0 -- -- 37
2020-10-19 10:00:00 14.7 7 Nordeste 17 Nordeste 0 -- -- 40
2020-10-19 09:00:00 13 7 Nordeste 14 Nordeste 0 -- -- 40
2020-10-19 08:00:00 13.4 6 Nordeste 15 Nordeste 0 -- -- 38
2020-10-19 07:00:00 14.1 8 Nordeste 19 Nordeste 0 -- -- 35
2020-10-19 06:00:00 14.2 6 Nordeste 17 Nordeste 0 -- -- 36
2020-10-19 05:00:00 14.5 6 Nordeste 17 Nordeste 0 -- -- 35
2020-10-19 04:00:00 14.6 8 Nordeste 16 Este 0 -- -- 34
2020-10-19 03:00:00 14.2 4 Nordeste 12 Este 0 -- -- 36
2020-10-19 02:00:00 14.3 4 Este 12 Nordeste 0 -- -- 35
2020-10-19 01:00:00 14.4 5 Este 12 Este 0 -- -- 36
2020-10-19 00:00:00 14.8 5 Este 11 Este 0 -- -- 36
2020-10-18 23:00:00 15.9 4 Este 10 Nordeste 0 -- -- 35
2020-10-18 22:00:00 17 8 Nordeste 16 Nordeste 0 -- -- 35
2020-10-18 21:00:00 17.5 8 Nordeste 16 Nordeste 0 -- -- 35
2020-10-18 20:00:00 18.1 6 Nordeste 10 Nordeste 0 -- -- 34
2020-10-18 19:00:00 22.4 3 Este 15 Nordeste 0 -- -- 26
2020-10-18 18:00:00 23.5 6 Nordeste 17 Nordeste 0 -- -- 26
2020-10-18 17:00:00 22.8 6 Nordeste 14 Nordeste 0 -- -- 27
2020-10-18 16:00:00 21.9 6 Nordeste 18 Nordeste 0 -- -- 28
2020-10-18 15:00:00 22.2 8 Este 20 Nordeste 0 -- -- 27
2020-10-18 14:00:00 22.2 6 Sudeste 19 Sudeste 0 -- -- 28
2020-10-18 13:00:00 20.2 9 Este 22 Este 0 -- -- 31
2020-10-18 12:00:00 18 8 Nordeste 24 Nordeste 0 -- -- 35
2020-10-18 11:00:00 16 8 Nordeste 24 Nordeste 0 -- -- 39
2020-10-18 10:00:00 12.9 9 Nordeste 22 Nordeste 0 -- -- 46
2020-10-18 09:00:00 11.7 8 Nordeste 21 Nordeste 0 -- -- 48
2020-10-18 08:00:00 12.1 7 Este 18 Nordeste 0 -- -- 47
2020-10-18 07:00:00 12 9 Nordeste 18 Nordeste 0 -- -- 47
2020-10-18 06:00:00 11.6 9 Nordeste 16 Este 0 -- -- 49
2020-10-18 05:00:00 11.8 6 Nordeste 16 Nordeste 0 -- -- 49
2020-10-18 04:00:00 11.1 4 Este 9 Nordeste 0 -- -- 52
2020-10-18 03:00:00 11.7 3 Este 8 Nordeste 0 -- -- 48
2020-10-18 02:00:00 13.1 2 Este 14 Nordeste 0 -- -- 44
2020-10-18 01:00:00 12.3 7 Nordeste 11 Nordeste 0 -- -- 47
2020-10-18 00:00:00 10.9 3 Nordeste 5 Norte 0 -- -- 49
2020-10-17 23:00:00 11 4 Norte 5 Norte 0 -- -- 49
2020-10-17 22:00:00 12 2 Nordeste 4 Noroeste 0 -- -- 48
2020-10-17 21:00:00 12.8 2 Sur 4 Sur 0 -- -- 44
2020-10-17 20:00:00 16.1 2 Sur 13 Sudoeste 0 -- -- 37
2020-10-17 19:00:00 19 8 Sudoeste 18 Sudoeste 0 -- -- 31
2020-10-17 18:00:00 19.9 10 Oeste 17 Sudoeste 0 -- -- 29
2020-10-17 17:00:00 20.4 8 Oeste 21 Sudoeste 0 -- -- 30
2020-10-17 16:00:00 20.3 10 Sudoeste 23 Sudoeste 0 -- -- 30
2020-10-17 15:00:00 19.6 12 Oeste 23 Sudoeste 0 -- -- 32
2020-10-17 14:00:00 18.8 11 Oeste 24 Oeste 0 -- -- 34
2020-10-17 13:00:00 18.2 6 Sudoeste 14 Oeste 0 -- -- 36
2020-10-17 12:00:00 16.6 3 Sudoeste 10 Este 0 -- -- 39
2020-10-17 11:00:00 14.6 3 Este 9 Nordeste 0 -- -- 45
2020-10-17 10:00:00 10.3 5 Este 13 Nordeste 0 -- -- 55
2020-10-17 09:00:00 9.4 9 Nordeste 15 Nordeste 0 -- -- 55
2020-10-17 08:00:00 8.7 4 Este 9 Este 0 -- -- 57
2020-10-17 07:00:00 9.7 5 Nordeste 10 Nordeste 0 -- -- 54
2020-10-17 06:00:00 9.4 4 Nordeste 8 Este 0 -- -- 55
2020-10-17 05:00:00 9.8 3 Nordeste 7 Nordeste 0 -- -- 54
2020-10-17 04:00:00 10.1 5 Nordeste 9 Nordeste 0 -- -- 54
2020-10-17 03:00:00 10 0 Calma 6 Nordeste 0 -- -- 54
2020-10-17 02:00:00 10.2 2 Este 6 Este 0 -- -- 52
2020-10-17 01:00:00 10.5 3 Este 9 Sudeste 0 -- -- 51
2020-10-17 00:00:00 10 4 Nordeste 6 Nordeste 0 -- -- 54
2020-10-16 23:00:00 9.8 0 Calma 3 Norte 0 -- -- 54
2020-10-16 22:00:00 10.6 0 Calma 4 Norte 0 -- -- 53
2020-10-16 21:00:00 13.3 2 Noroeste 13 Oeste 0 -- -- 45
2020-10-16 20:00:00 15.4 6 Sudoeste 14 Oeste 0 -- -- 40
2020-10-16 19:00:00 18.1 9 Sudoeste 24 Sudoeste 0 -- -- 35
2020-10-16 18:00:00 18.7 12 Sudoeste 26 Sudoeste 0 -- -- 34
2020-10-16 17:00:00 19.1 5 Sudoeste 17 Sudoeste 0 -- -- 35
2020-10-16 16:00:00 18.4 5 Noroeste 19 Oeste 0 -- -- 36
2020-10-16 15:00:00 18.1 6 Sudoeste 17 Sudoeste 0 -- -- 36
2020-10-16 14:00:00 17.2 4 Noroeste 14 Norte 0 -- -- 38
2020-10-16 13:00:00 16 5 Este 19 Sudeste 0 -- -- 41
2020-10-16 12:00:00 14.5 7 Este 18 Este 0 -- -- 44
2020-10-16 11:00:00 12.9 7 Este 16 Nordeste 0 -- -- 48
2020-10-16 10:00:00 9.9 5 Este 14 Este 0 -- -- 57
2020-10-16 09:00:00 8 6 Nordeste 12 Nordeste 0 -- -- 62
2020-10-16 08:00:00 8.2 7 Nordeste 14 Nordeste 0 -- -- 61
2020-10-16 07:00:00 8.7 6 Nordeste 17 Este 0 -- -- 59
2020-10-16 06:00:00 8.8 3 Nordeste 14 Este 0 -- -- 58
2020-10-16 05:00:00 9.5 4 Este 16 Este 0 -- -- 57
2020-10-16 04:00:00 9.9 5 Este 15 Este 0 -- -- 55
2020-10-16 03:00:00 10.6 3 Este 14 Este 0 -- -- 52
2020-10-16 02:00:00 11.4 8 Nordeste 17 Nordeste 0 -- -- 49
2020-10-16 01:00:00 11.9 7 Nordeste 15 Nordeste 0 -- -- 47
2020-10-16 00:00:00 11.8 6 Nordeste 13 Nordeste 0 -- -- 48
2020-10-15 23:00:00 11.6 8 Nordeste 12 Nordeste 0 -- -- 47
2020-10-15 22:00:00 11.5 4 Nordeste 8 Nordeste 0 -- -- 50
2020-10-15 21:00:00 13.3 2 Sudeste 7 Sur 0 -- -- 45
2020-10-15 20:00:00 15.5 3 Sur 11 Sudoeste 0 -- -- 40
2020-10-15 19:00:00 18.2 10 Sudoeste 19 Sudoeste 0 -- -- 35
2020-10-15 18:00:00 19 10 Sudoeste 19 Sudoeste 0 -- -- 34
2020-10-15 17:00:00 19.2 6 Oeste 19 Oeste 0 -- -- 34
2020-10-15 16:00:00 19 8 Oeste 21 Oeste 0 -- -- 34
2020-10-15 15:00:00 18.6 10 Sudoeste 21 Sur 0 -- -- 34
2020-10-15 14:00:00 18.1 4 Sudoeste 14 Sudoeste 0 -- -- 35
2020-10-15 13:00:00 17 3 Sudeste 15 Este 0 -- -- 37
2020-10-15 12:00:00 16 5 Este 12 Nordeste 0 -- -- 40
2020-10-15 11:00:00 13.9 5 Este 11 Nordeste 0 -- -- 45
2020-10-15 10:00:00 9.3 0 Calma 6 Nordeste 0 -- -- 59
2020-10-15 09:00:00 7.4 5 Nordeste 9 Este 0 -- -- 64
2020-10-15 08:00:00 6.6 0 Calma 6 Este 0 -- -- 67
2020-10-15 07:00:00 6 4 Nordeste 8 Nordeste 0 -- -- 72
2020-10-15 06:00:00 7.2 2 Nordeste 4 Nordeste 0 -- -- 66
2020-10-15 05:00:00 9.1 0 Calma 10 Nordeste 0 -- -- 57
2020-10-15 04:00:00 10.3 6 Nordeste 13 Este 0 -- -- 56
2020-10-15 03:00:00 10.7 6 Nordeste 11 Este 0 -- -- 53
2020-10-15 02:00:00 11.2 5 Nordeste 10 Nordeste 0 -- -- 51
2020-10-15 01:00:00 10.9 4 Norte 13 Norte 0 -- -- 53
2020-10-15 00:00:00 13 9 Norte 17 Norte 0 -- -- 47
2020-10-14 23:00:00 13.3 8 Noroeste 14 Norte 0 -- -- 45
2020-10-14 22:00:00 12.7 6 Noroeste 12 Noroeste 0 -- -- 47
2020-10-14 21:00:00 14.4 6 Norte 9 Norte 0 -- -- 43
2020-10-14 20:00:00 16.3 4 Noroeste 17 Noroeste 0 -- -- 39
2020-10-14 19:00:00 18.6 9 Noroeste 19 Oeste 0 -- -- 36
2020-10-14 18:00:00 19.4 8 Oeste 24 Oeste 0 -- -- 37
2020-10-14 17:00:00 19.4 13 Sudoeste 26 Sudoeste 0 -- -- 41
2020-10-14 16:00:00 19 11 Sudoeste 23 Sudoeste 0 -- -- 45
2020-10-14 15:00:00 18.3 9 Sudoeste 21 Sudoeste 0 -- -- 48
2020-10-14 14:00:00 17 4 Sudoeste 14 Este 0 -- -- 51
2020-10-14 13:00:00 16.3 6 Sudeste 16 Este 0 -- -- 52
2020-10-14 12:00:00 14.6 6 Este 13 Este 0 -- -- 60
2020-10-14 11:00:00 12.3 6 Este 14 Nordeste 0 -- -- 70
2020-10-14 10:00:00 9.1 5 Nordeste 14 Nordeste 0 -- -- 86
2020-10-14 09:00:00 7.6 0 Calma 18 Noroeste 0 -- -- 82
2020-10-14 08:00:00 10 13 Noroeste 26 Noroeste 0 -- -- 69
2020-10-14 07:00:00 10.1 9 Oeste 18 Oeste 0 -- -- 73
2020-10-14 06:00:00 11 10 Noroeste 18 Oeste 0 -- -- 69
2020-10-14 05:00:00 11.8 11 Noroeste 26 Noroeste 0 -- -- 70
2020-10-14 04:00:00 11.8 11 Oeste 20 Oeste 0 -- -- 75
2020-10-14 03:00:00 11.5 6 Sudoeste 12 Sudoeste 0 -- -- 80
2020-10-14 02:00:00 12.8 0 Calma 15 Sur 0 -- -- 76
2020-10-14 01:00:00 14.1 2 Sudoeste 10 Norte 0 -- -- 69
2020-10-14 00:00:00 14.3 2 Noroeste 9 Sudoeste 0 -- -- 65
2020-10-13 23:00:00 15.7 4 Sudoeste 12 Sudoeste 0 -- -- 55
2020-10-13 22:00:00 18 8 Sudoeste 20 Oeste 0 -- -- 48
2020-10-13 21:00:00 18.7 8 Sudoeste 19 Oeste 0 -- -- 46
2020-10-13 20:00:00 20.8 11 Oeste 24 Oeste 0 -- -- 42
2020-10-13 19:00:00 22.7 15 Oeste 30 Oeste 0 -- -- 39
2020-10-13 18:00:00 23.6 15 Oeste 34 Oeste 0 -- -- 38
2020-10-13 17:00:00 24.4 14 Oeste 32 Sudoeste 0 -- -- 35
2020-10-13 16:00:00 23.4 16 Sudoeste 28 Sudoeste 0 -- -- 35
2020-10-13 15:00:00 21.8 15 Sudoeste 24 Sudoeste 0 -- -- 37
2020-10-13 14:00:00 20.6 12 Sudoeste 21 Sudoeste 0 -- -- 39
2020-10-13 13:00:00 18.4 12 Sudoeste 17 Oeste 0 -- -- 40
2020-10-13 12:00:00 16.8 11 Sudoeste 15 Sur 0 -- -- 39
2020-10-13 11:00:00 15.9 8 Sudoeste 11 Sudoeste 0 -- -- 41
2020-10-13 10:00:00 11.9 3 Noroeste 5 Noroeste 0 -- -- 51
2020-10-13 09:00:00 8.4 0 Calma 2 Sur 0 -- -- 64
2020-10-13 08:00:00 9.1 0 Calma 3 Sudeste 0 -- -- 61
2020-10-13 07:00:00 9.1 0 Calma 4 Noroeste 0 -- -- 61
2020-10-13 06:00:00 9.7 0 Calma 4 Nordeste 0 -- -- 57
2020-10-13 05:00:00 10.9 4 Nordeste 6 Nordeste 0 -- -- 55
2020-10-13 04:00:00 -- -- -- -- -- -- -- -- --
2020-10-13 03:00:00 10.1 3 Nordeste 5 Este 0 -- -- 58
2020-10-13 02:00:00 11 0 Calma 7 Nordeste 0 -- -- 49
2020-10-13 01:00:00 -- -- -- -- -- -- -- -- --
2020-10-13 00:00:00 12.3 0 Calma 14 Este 0 -- -- 46
2020-10-12 23:00:00 12.2 4 Nordeste 8 Nordeste 0 -- -- 44
2020-10-12 22:00:00 12.9 4 Nordeste 7 Nordeste 0 -- -- 41
2020-10-12 21:00:00 13.7 3 Nordeste 8 Norte 0 -- -- 45
2020-10-12 20:00:00 17.5 3 Norte 10 Sudoeste 0 -- -- 36
2020-10-12 19:00:00 20.5 4 Oeste 13 Oeste 0 -- -- 30
2020-10-12 18:00:00 21 8 Oeste 17 Sudoeste 0 -- -- 30
2020-10-12 17:00:00 21.1 9 Oeste 21 Sudoeste 0 -- -- 30
2020-10-12 16:00:00 20.7 5 Norte 15 Oeste 0 -- -- 30
2020-10-12 15:00:00 20.1 8 Noroeste 20 Norte 0 -- -- 31
2020-10-12 14:00:00 18.6 7 Nordeste 20 Nordeste 0 -- -- 33
2020-10-12 13:00:00 16.8 7 Este 22 Nordeste 0 -- -- 39
2020-10-12 12:00:00 15.5 7 Este 19 Nordeste 0 -- -- 42
2020-10-12 11:00:00 13.5 8 Este 22 Este 0 -- -- 46
2020-10-12 10:00:00 10.7 6 Este 15 Este 0 -- -- 54
2020-10-12 09:00:00 8.3 4 Este 21 Este 0 -- -- 60
2020-10-12 08:00:00 8.4 5 Este 13 Sudeste 0 -- -- 60
2020-10-12 07:00:00 9.3 5 Este 20 Este 0 -- -- 56
2020-10-12 06:00:00 9.9 5 Este 16 Nordeste 0 -- -- 54
2020-10-12 05:00:00 10.7 7 Este 19 Este 0 -- -- 51
2020-10-12 04:00:00 -- -- -- -- -- -- -- -- --
2020-10-12 03:00:00 12.2 7 Este 22 Este 0 -- -- 47
2020-10-12 02:00:00 12.9 8 Este 24 Este 0 -- -- 44
2020-10-12 01:00:00 13.4 9 Este 21 Nordeste 0 -- -- 43
2020-10-12 00:00:00 14.6 12 Nordeste 25 Nordeste 0 -- -- 39
2020-10-11 23:00:00 15.5 14 Nordeste 29 Nordeste 0 -- -- 36
2020-10-11 22:00:00 16.4 14 Nordeste 25 Nordeste 0 -- -- 32
2020-10-11 21:00:00 -- -- -- -- -- -- -- -- --
2020-10-11 20:00:00 -- -- -- -- -- -- -- -- --
2020-10-11 19:00:00 21.3 12 Nordeste 25 Este 0 -- -- 23
2020-10-11 18:00:00 22.8 10 Nordeste 20 Nordeste 0 -- -- 19
2020-10-11 17:00:00 23.4 11 Nordeste 23 Norte 0 -- -- 18
2020-10-11 16:00:00 23.6 10 Nordeste 26 Nordeste 0 -- -- 21
2020-10-11 15:00:00 23 9 Este 23 Nordeste 0 -- -- 23
2020-10-11 14:00:00 21.8 10 Nordeste 28 Este 0 -- -- 26
2020-10-11 13:00:00 20.1 11 Nordeste 29 Este 0 -- -- 36
2020-10-11 12:00:00 17.8 14 Este 28 Este 0 -- -- 41
2020-10-11 11:00:00 16 13 Este 30 Este 0 -- -- 46
2020-10-11 10:00:00 13.6 10 Este 28 Sudeste 0 -- -- 54
2020-10-11 09:00:00 12.4 10 Este 23 Este 0 -- -- 60
2020-10-11 08:00:00 13 9 Este 25 Nordeste 0 -- -- 62
2020-10-11 07:00:00 13.8 9 Este 27 Sudeste 0 -- -- 62
2020-10-11 06:00:00 14.4 8 Este 24 Este 0 -- -- 61
2020-10-11 05:00:00 15.3 10 Este 26 Este 0 -- -- 59
2020-10-11 04:00:00 16 9 Este 28 Este 0 -- -- 58
2020-10-11 03:00:00 16.7 8 Este 19 Este 0 -- -- 55
2020-10-11 02:00:00 17.5 7 Este 24 Este 0 -- -- 53
2020-10-11 01:00:00 17.6 6 Este 18 Este 0 -- -- 54
2020-10-11 00:00:00 18.2 3 Este 13 Nordeste 0 -- -- 53
2020-10-10 23:00:00 18.9 8 Nordeste 11 Nordeste 0 -- -- 52
2020-10-10 22:00:00 20.3 6 Norte 11 Norte 0 -- -- 46
2020-10-10 21:00:00 19.6 4 Nordeste 8 Nordeste 0 -- -- 49
2020-10-10 20:00:00 23.7 3 Norte 15 Noroeste 0 -- -- 37
2020-10-10 19:00:00 26.5 9 Noroeste 20 Noroeste 0 -- -- 30
2020-10-10 18:00:00 27.7 12 Noroeste 22 Oeste 0 -- -- 28
2020-10-10 17:00:00 28.1 12 Oeste 24 Sudoeste 0 -- -- 29
2020-10-10 16:00:00 28 10 Sudoeste 22 Sudoeste 0 -- -- 31
2020-10-10 15:00:00 27.6 8 Sudoeste 20 Oeste 0 -- -- 33
2020-10-10 14:00:00 26.5 6 Oeste 14 Oeste 0 -- -- 35
2020-10-10 13:00:00 25.2 9 Oeste 14 Oeste 0 -- -- 38
2020-10-10 12:00:00 23.6 5 Oeste 10 Oeste 0 -- -- 43
2020-10-10 11:00:00 22.7 2 Sudeste 5 Nordeste 0 -- -- 43
2020-10-10 10:00:00 17.8 4 Nordeste 10 Nordeste 0 -- -- 58
2020-10-10 09:00:00 15.1 6 Este 9 Este 0 -- -- 63
2020-10-10 08:00:00 14.5 2 Este 8 Nordeste 0 -- -- 61
2020-10-10 07:00:00 15.8 4 Este 8 Nordeste 0 -- -- 58
2020-10-10 06:00:00 16 0 Calma 6 Nordeste 0 -- -- 56
2020-10-10 05:00:00 15.4 3 Este 6 Este 0 -- -- 57
2020-10-10 04:00:00 15.8 0 Calma 7 Norte 0 -- -- 56
2020-10-10 03:00:00 15.4 0 Calma 6 Norte 0 -- -- 59
2020-10-10 02:00:00 18.4 3 Este 8 Nordeste 0 -- -- 45
2020-10-10 01:00:00 17.9 3 Nordeste 6 Norte 0 -- -- 50
2020-10-10 00:00:00 17.8 4 Norte 6 Nordeste 0 -- -- 56
2020-10-09 23:00:00 18.4 3 Norte 5 Noroeste 0 -- -- 53
2020-10-09 22:00:00 18.3 0 Calma 4 Noroeste 0 -- -- 53
2020-10-09 21:00:00 20.6 2 Oeste 7 Oeste 0 -- -- 47
2020-10-09 20:00:00 23 6 Oeste 10 Oeste 0 -- -- 40
2020-10-09 19:00:00 25.2 9 Oeste 14 Oeste 0 -- -- 35
2020-10-09 18:00:00 26.2 8 Oeste 18 Sudoeste 0 -- -- 33
2020-10-09 17:00:00 26 7 Oeste 17 Oeste 0 -- -- 34
2020-10-09 16:00:00 26.9 8 Oeste 15 Oeste 0 -- -- 33
2020-10-09 15:00:00 27.4 6 Oeste 14 Oeste 0 -- -- 31
2020-10-09 14:00:00 26.5 3 Sudoeste 10 Sudoeste 0 -- -- 34
2020-10-09 13:00:00 24.6 4 Sudoeste 10 Sur 0 -- -- 38
2020-10-09 12:00:00 22.6 2 Sur 6 Este 0 -- -- 42
2020-10-09 11:00:00 20.1 0 Calma 8 Sudeste 0 -- -- 46
2020-10-09 10:00:00 18 0 Calma 9 Este 0 -- -- 56
2020-10-09 09:00:00 17.1 4 Este 10 Nordeste 0 -- -- 54
2020-10-09 08:00:00 17.3 4 Este 11 Este 0 -- -- 50
2020-10-09 07:00:00 17.4 6 Este 10 Este 0 -- -- 50
2020-10-09 06:00:00 17.6 4 Este 11 Nordeste 0 -- -- 50
2020-10-09 05:00:00 18.5 5 Este 13 Nordeste 0 -- -- 49
2020-10-09 04:00:00 19.9 9 Este 14 Nordeste 0 -- -- 46
2020-10-09 03:00:00 19.4 6 Este 10 Este 0 -- -- 49
2020-10-09 02:00:00 19.6 0 Calma 5 Nordeste 0 -- -- 49
2020-10-09 01:00:00 19.8 0 Calma 6 Este 0 -- -- 46
2020-10-09 00:00:00 20.3 0 Calma 6 Este 0 -- -- 43
2020-10-08 23:00:00 19 2 Este 7 Nordeste 0 -- -- 46
2020-10-08 22:00:00 20.7 0 Calma 4 Nordeste 0 -- -- 41
2020-10-08 21:00:00 19.9 0 Calma 3 Nordeste 0 -- -- 47
2020-10-08 20:00:00 23.2 0 Calma 8 Noroeste 0 -- -- 37
2020-10-08 19:00:00 27.3 3 Noroeste 21 Oeste 0 -- -- 30
2020-10-08 18:00:00 28.2 7 Oeste 17 Sudoeste 0 -- -- 28
2020-10-08 17:00:00 28.7 7 Sur 18 Oeste 0 -- -- 29
2020-10-08 16:00:00 28 7 Oeste 20 Sudoeste 0 -- -- 30
2020-10-08 15:00:00 27.4 9 Oeste 21 Oeste 0 -- -- 31
2020-10-08 14:00:00 27.5 5 Sur 12 Noroeste 0 -- -- 31
2020-10-08 13:00:00 25 3 Nordeste 10 Nordeste 0 -- -- 37
2020-10-08 12:00:00 24.1 4 Este 13 Este 0 -- -- 39
2020-10-08 11:00:00 23 5 Este 15 Nordeste 0 -- -- 44
2020-10-08 10:00:00 20 7 Este 18 Nordeste 0 -- -- 48
2020-10-08 09:00:00 18 8 Nordeste 16 Este 0 -- -- 51
2020-10-08 08:00:00 18.2 8 Nordeste 17 Este 0 -- -- 50
2020-10-08 07:00:00 18.4 9 Este 19 Nordeste 0 -- -- 49
2020-10-08 06:00:00 18.5 9 Este 17 Este 0 -- -- 49
2020-10-08 05:00:00 18.7 8 Este 15 Este 0 -- -- 50
2020-10-08 04:00:00 18.9 6 Este 15 Este 0 -- -- 51
2020-10-08 03:00:00 19.4 8 Este 18 Nordeste 0 -- -- 52
2020-10-08 02:00:00 18.3 3 Este 9 Nordeste 0 -- -- 57
2020-10-08 01:00:00 19 3 Este 11 Este 0 -- -- 57
2020-10-08 00:00:00 19.2 4 Este 14 Este 0 -- -- 54
2020-10-07 23:00:00 18.9 5 Norte 6 Norte 0 -- -- 52
2020-10-07 22:00:00 19.5 4 Norte 8 Noroeste 0 -- -- 52
2020-10-07 21:00:00 20.5 6 Noroeste 9 Noroeste 0 -- -- 46
2020-10-07 20:00:00 23.5 2 Oeste 5 Sudeste 0 -- -- 42
2020-10-07 19:00:00 27.7 2 Este 11 Nordeste 0 -- -- 31
2020-10-07 18:00:00 27.9 3 Nordeste 11 Este 0 -- -- 27
2020-10-07 17:00:00 28 4 Este 15 Oeste 0 -- -- 31
2020-10-07 16:00:00 27.6 4 Sudoeste 11 Este 0 -- -- 31
2020-10-07 15:00:00 27 4 Sudeste 14 Sudeste 0 -- -- 37
2020-10-07 14:00:00 25.8 6 Sudeste 12 Este 0 -- -- 44
2020-10-07 13:00:00 23.9 4 Nordeste 11 Este 0 -- -- 50
2020-10-07 12:00:00 22.1 6 Este 13 Sudeste 0 -- -- 58
2020-10-07 11:00:00 19.6 6 Nordeste 12 Este 0 -- -- 67
2020-10-07 10:00:00 16.2 4 Este 12 Nordeste 0 -- -- 80
2020-10-07 09:00:00 13.5 0 Calma 9 Nordeste 0 -- -- 89
2020-10-07 08:00:00 13.3 2 Este 8 Nordeste 0 -- -- 85
2020-10-07 07:00:00 13.4 3 Este 6 Este 0 -- -- 88
2020-10-07 06:00:00 13.3 0 Calma 7 Este 0 -- -- 82
2020-10-07 05:00:00 14.2 0 Calma 6 Norte 0 -- -- 79
2020-10-07 04:00:00 13.7 0 Calma 4 Este 0 -- -- 82
2020-10-07 03:00:00 14.3 0 Calma 6 Nordeste 0 -- -- 81
2020-10-07 02:00:00 14.8 4 Nordeste 6 Nordeste 0 -- -- 78
2020-10-07 01:00:00 15.2 0 Calma 3 Sur 0 -- -- 76
2020-10-07 00:00:00 17.3 2 Noroeste 8 Noroeste 0 -- -- 68
2020-10-06 23:00:00 17.8 6 Noroeste 10 Noroeste 0 -- -- 65
2020-10-06 22:00:00 17.9 0 Calma 8 Norte 0 -- -- 65
2020-10-06 21:00:00 20.3 0 Calma 10 Noroeste 0 -- -- 58
2020-10-06 20:00:00 22.8 5 Noroeste 13 Noroeste 0 -- -- 50
2020-10-06 19:00:00 25.4 5 Noroeste 15 Sur 0 -- -- 47
2020-10-06 18:00:00 25.6 10 Sudoeste 19 Sudoeste 0 -- -- 48
2020-10-06 17:00:00 25.1 9 Sudoeste 20 Sudoeste 0 -- -- 49
2020-10-06 16:00:00 24.5 8 Sudoeste 18 Sudoeste 0 -- -- 51
2020-10-06 15:00:00 23.5 6 Norte 15 Oeste 0 -- -- 54
2020-10-06 14:00:00 21.7 5 Norte 15 Oeste 0 -- -- 59
2020-10-06 13:00:00 20.5 5 Sudoeste 12 Noroeste 0 -- -- 61
2020-10-06 12:00:00 18.6 6 Sudoeste 12 Noroeste 0 -- -- 68
2020-10-06 11:00:00 16.2 4 Oeste 8 Oeste 0 -- -- 78
2020-10-06 10:00:00 12.6 3 Sur 8 Sur 0 -- -- 93
2020-10-06 09:00:00 10.3 3 Sudeste 7 Sudeste 0 -- -- 93
2020-10-06 08:00:00 10.2 0 Calma 3 Noroeste 0 -- -- 92
2020-10-06 07:00:00 11.2 2 Sudeste 6 Sur 0 -- -- 87
2020-10-06 06:00:00 12.7 3 Noroeste 12 Oeste 0 -- -- 83
2020-10-06 05:00:00 12.3 6 Oeste 11 Oeste 0 -- -- 82
2020-10-06 04:00:00 12.2 4 Sudoeste 13 Oeste 0 -- -- 78
2020-10-06 03:00:00 12.3 4 Oeste 8 Oeste 0 -- -- 77
2020-10-06 02:00:00 11.7 0 Calma 7 Sur 0 -- -- 77
2020-10-06 01:00:00 13.8 3 Este 13 Sudoeste 0 -- -- 69
2020-10-06 00:00:00 16 4 Oeste 28 Oeste 0 -- -- 62
2020-10-05 23:00:00 15.3 3 Oeste 15 Oeste 0 -- -- 62
2020-10-05 22:00:00 15.3 3 Oeste 12 Oeste 0 -- -- 59
2020-10-05 21:00:00 17 8 Noroeste 16 Oeste 0 -- -- 52
2020-10-05 20:00:00 17.8 8 Noroeste 23 Noroeste 0 -- -- 47
2020-10-05 19:00:00 19.7 12 Noroeste 23 Noroeste 0 -- -- 40
2020-10-05 18:00:00 20.3 12 Noroeste 24 Noroeste 0 -- -- 39
2020-10-05 17:00:00 20.4 12 Oeste 22 Oeste 0 -- -- 40
2020-10-05 16:00:00 19.6 10 Noroeste 22 Oeste 0 -- -- 42
2020-10-05 15:00:00 19 8 Oeste 15 Oeste 0 -- -- 43
2020-10-05 14:00:00 17.7 4 Oeste 15 Oeste 0 -- -- 46
2020-10-05 13:00:00 16.5 5 Oeste 13 Oeste 0 -- -- 51
2020-10-05 12:00:00 15 5 Oeste 13 Noroeste 0 -- -- 56
2020-10-05 11:00:00 13.1 9 Oeste 18 Noroeste 0 -- -- 64
2020-10-05 10:00:00 11.2 9 Noroeste 22 Oeste 0 -- -- 73
2020-10-05 09:00:00 9.5 12 Noroeste 25 Noroeste 0 -- -- 80
2020-10-05 08:00:00 9.8 14 Noroeste 23 Noroeste 0 -- -- 77
2020-10-05 07:00:00 9.9 14 Noroeste 24 Norte 0 -- -- 77
2020-10-05 06:00:00 9.2 6 Norte 14 Noroeste 0 -- -- 79
2020-10-05 05:00:00 9.6 5 Norte 12 Norte 0 -- -- 76
2020-10-05 04:00:00 10.3 5 Noroeste 21 Noroeste 0 -- -- 74
2020-10-05 03:00:00 10.7 11 Norte 20 Norte 0 -- -- 71
2020-10-05 02:00:00 11.3 2 Noroeste 13 Oeste 0 -- -- 67
2020-10-05 01:00:00 12 6 Oeste 17 Noroeste 0 -- -- 63
2020-10-05 00:00:00 12.6 8 Oeste 19 Noroeste 0 -- -- 59
2020-10-04 23:00:00 13 6 Oeste 14 Oeste 0 -- -- 58
2020-10-04 22:00:00 14.2 8 Oeste 21 Oeste 0 -- -- 57
2020-10-04 21:00:00 15 10 Oeste 19 Oeste 0 -- -- 55
2020-10-04 20:00:00 16.3 14 Oeste 31 Oeste 0 -- -- 52
2020-10-04 19:00:00 17.8 18 Oeste 33 Oeste 0 -- -- 48
2020-10-04 18:00:00 17.7 15 Noroeste 31 Oeste 0 -- -- 53
2020-10-04 17:00:00 17.2 18 Oeste 35 Oeste 0 -- -- 57
2020-10-04 16:00:00 15.3 13 Noroeste 25 Oeste 0 -- -- 80
2020-10-04 15:00:00 12.7 16 Oeste 27 Oeste 0.6 -- -- 97
2020-10-04 14:00:00 11.7 14 Oeste 32 Oeste 0.2 -- -- 95
2020-10-04 13:00:00 12.8 22 Sudoeste 31 Sudoeste 0 -- -- 84
2020-10-04 12:00:00 12.4 20 Sudoeste 28 Oeste 0 -- -- 82
2020-10-04 11:00:00 10.4 11 Oeste 17 Sudoeste 0 -- -- 85
2020-10-04 10:00:00 9.6 9 Sudoeste 15 Sudoeste 0 -- -- 89
2020-10-04 09:00:00 8.5 6 Oeste 11 Noroeste 0 -- -- 92
2020-10-04 08:00:00 7.1 6 Oeste 14 Oeste 0 -- -- 92
2020-10-04 07:00:00 8 9 Oeste 13 Oeste 0 -- -- 90
2020-10-04 06:00:00 7.2 9 Sudoeste 12 Oeste 0 -- -- 89
2020-10-04 05:00:00 7.2 0 Calma 8 Noroeste 0 -- -- 84
2020-10-04 04:00:00 8.6 6 Noroeste 14 Oeste 0 -- -- 78
2020-10-04 03:00:00 10 10 Oeste 16 Oeste 0 -- -- 71
2020-10-04 02:00:00 10.4 8 Oeste 18 Oeste 0 -- -- 70
2020-10-04 01:00:00 11.1 8 Oeste 27 Oeste 0 -- -- 68
2020-10-04 00:00:00 12 14 Oeste 24 Oeste 0 -- -- 65
2020-10-03 23:00:00 12.3 11 Oeste 23 Oeste 0 -- -- 62
2020-10-03 22:00:00 12.7 9 Oeste 23 Oeste 0 -- -- 56
2020-10-03 21:00:00 13.7 10 Oeste 28 Noroeste 0 -- -- 52
2020-10-03 20:00:00 15.1 16 Oeste 28 Oeste 0 -- -- 47
2020-10-03 19:00:00 16.5 16 Oeste 35 Oeste 0 -- -- 43
2020-10-03 18:00:00 17.1 19 Oeste 36 Oeste 0 -- -- 41
2020-10-03 17:00:00 16.7 22 Noroeste 39 Oeste 0 -- -- 41
2020-10-03 16:00:00 16.1 21 Oeste 38 Oeste 0 -- -- 43
2020-10-03 15:00:00 16 17 Oeste 36 Noroeste 0 -- -- 45
2020-10-03 14:00:00 14.9 14 Norte 34 Norte 0 -- -- 47
2020-10-03 13:00:00 14.3 15 Noroeste 32 Oeste 0 -- -- 52
2020-10-03 12:00:00 12.7 16 Noroeste 26 Noroeste 0 -- -- 59
2020-10-03 11:00:00 11.1 12 Noroeste 27 Noroeste 0 -- -- 66
2020-10-03 10:00:00 9.1 12 Noroeste 21 Noroeste 0 -- -- 76
2020-10-03 09:00:00 7.2 3 Sur 28 Noroeste 0 -- -- 82
2020-10-03 08:00:00 7.7 18 Noroeste 37 Noroeste 0 -- -- 80
2020-10-03 07:00:00 7.9 22 Noroeste 39 Noroeste 0 -- -- 80
2020-10-03 06:00:00 8 19 Noroeste 42 Noroeste 0 -- -- 80
2020-10-03 05:00:00 8.5 21 Noroeste 36 Noroeste 0 -- -- 76
2020-10-03 04:00:00 8.7 15 Noroeste 33 Noroeste 0 -- -- 74
2020-10-03 03:00:00 8.9 16 Noroeste 35 Noroeste 0 -- -- 71
2020-10-03 02:00:00 9.4 13 Oeste 27 Oeste 0 -- -- 68
2020-10-03 01:00:00 9.1 13 Oeste 31 Sudoeste 0 -- -- 70
2020-10-03 00:00:00 10.2 21 Oeste 33 Sudoeste 0 -- -- 64
2020-10-02 23:00:00 10.8 13 Oeste 40 Noroeste 0 -- -- 59
2020-10-02 22:00:00 11.3 20 Noroeste 35 Oeste 0 -- -- 58
2020-10-02 21:00:00 12.1 15 Oeste 27 Noroeste 0 -- -- 56
2020-10-02 20:00:00 12.8 15 Oeste 33 Noroeste 0 -- -- 54
2020-10-02 19:00:00 13.9 22 Oeste 46 Noroeste 0 -- -- 47
2020-10-02 18:00:00 14.8 19 Noroeste 52 Noroeste 0 -- -- 55
2020-10-02 17:00:00 14.3 21 Noroeste 45 Oeste 0 -- -- 64
2020-10-02 16:00:00 13.6 26 Noroeste 48 Noroeste 0.4 -- -- 68
2020-10-02 15:00:00 12.8 26 Noroeste 55 Oeste 0 -- -- 79
2020-10-02 14:00:00 14.8 27 Oeste 54 Oeste 1 -- -- 78
2020-10-02 13:00:00 14.9 30 Oeste 65 Oeste 0 -- -- 87
2020-10-02 12:00:00 15.9 40 Oeste 64 Oeste 0 -- -- 94
2020-10-02 11:00:00 14.8 40 Oeste 62 Sudoeste 2 -- -- 98
2020-10-02 10:00:00 14.1 32 Sudoeste 57 Sudoeste 0.2 -- -- 98
2020-10-02 09:00:00 13.4 33 Oeste 45 Oeste 0.4 -- -- 97
2020-10-02 08:00:00 12.8 23 Oeste 41 Sudoeste 0.2 -- -- 96
2020-10-02 07:00:00 12.4 24 Sudoeste 37 Sudoeste 0.2 -- -- 95
2020-10-02 06:00:00 12.6 24 Sudoeste 35 Oeste 0 -- -- 90
2020-10-02 05:00:00 12.8 19 Sudoeste 31 Sudoeste 0 -- -- 83
2020-10-02 04:00:00 13.2 19 Oeste 34 Oeste 0 -- -- 80
2020-10-02 03:00:00 13.1 20 Oeste 37 Oeste 0 -- -- 76
2020-10-02 02:00:00 13.6 19 Oeste 36 Oeste 0 -- -- 72
2020-10-02 01:00:00 14.4 18 Oeste 40 Oeste 0 -- -- 68
2020-10-02 00:00:00 14.9 16 Oeste 27 Oeste 0 -- -- 68
2020-10-01 23:00:00 16.1 17 Oeste 30 Oeste 0 -- -- 63
2020-10-01 22:00:00 17.1 17 Oeste 29 Oeste 0 -- -- 60
2020-10-01 21:00:00 18.2 17 Oeste 30 Oeste 0 -- -- 57
2020-10-01 20:00:00 19.8 19 Oeste 32 Oeste 0 -- -- 50
2020-10-01 19:00:00 21.4 18 Oeste 32 Oeste 0 -- -- 48
2020-10-01 18:00:00 21.7 19 Oeste 37 Oeste 0 -- -- 49
2020-10-01 17:00:00 22.5 23 Oeste 41 Oeste 0 -- -- 47
2020-10-01 16:00:00 22.4 23 Oeste 36 Sudoeste 0 -- -- 48
2020-10-01 15:00:00 21.3 21 Sudoeste 37 Oeste 0 -- -- 53
2020-10-01 14:00:00 19.9 18 Sudoeste 30 Sudoeste 0 -- -- 57
2020-10-01 13:00:00 18.4 12 Sudoeste 22 Sudoeste 0 -- -- 62
2020-10-01 12:00:00 15.5 12 Sudoeste 18 Sudoeste 0 -- -- 74
2020-10-01 11:00:00 12.8 9 Sudoeste 13 Oeste 0 -- -- 98
2020-10-01 10:00:00 10.5 9 Oeste 13 Sudoeste 0 -- -- 98
2020-10-01 09:00:00 10.5 8 Oeste 14 Sudoeste 0 -- -- 97
2020-10-01 08:00:00 10.8 9 Oeste 17 Oeste 0 -- -- 97
2020-10-01 07:00:00 11.1 12 Sudoeste 15 Sudoeste 0 -- -- 96
2020-10-01 06:00:00 11.9 8 Sudoeste 13 Sudoeste 0 -- -- 95
2020-10-01 05:00:00 12.3 8 Sudoeste 15 Sudoeste 0 -- -- 91
2020-10-01 04:00:00 13.3 7 Oeste 13 Sudoeste 0 -- -- 82
2020-10-01 03:00:00 13.6 3 Sur 10 Sudoeste 0 -- -- 73
2020-10-01 02:00:00 14.1 0 Calma 6 Sudeste 0 -- -- 65
2020-10-01 01:00:00 16.2 3 Norte 10 Noroeste 0 -- -- 58
2020-10-01 00:00:00 17.3 8 Sudoeste 10 Sudoeste 0 -- -- 51
2020-09-30 23:00:00 16.9 0 Calma 4 Oeste 0 -- -- 52
2020-09-30 22:00:00 19.3 3 Oeste 13 Oeste 0 -- -- 45
2020-09-30 21:00:00 21.3 9 Oeste 15 Oeste 0 -- -- 40
2020-09-30 20:00:00 23.2 8 Sudoeste 19 Sudoeste 0 -- -- 36
2020-09-30 19:00:00 24.4 14 Sudoeste 23 Sudoeste 0 -- -- 33
2020-09-30 18:00:00 25.2 16 Sudoeste 25 Sudoeste 0 -- -- 32
2020-09-30 17:00:00 25.9 16 Sudoeste 24 Sudoeste 0 -- -- 30
2020-09-30 16:00:00 27 17 Sudoeste 28 Sudoeste 0 -- -- 27
2020-09-30 15:00:00 26.9 13 Sudoeste 22 Sudoeste 0 -- -- 28
2020-09-30 14:00:00 25.1 9 Oeste 14 Oeste 0 -- -- 31
2020-09-30 13:00:00 24.6 7 Oeste 12 Oeste 0 -- -- 31
2020-09-30 12:00:00 24.2 6 Sudoeste 13 Sudoeste 0 -- -- 32
2020-09-30 11:00:00 23.4 5 Sudoeste 9 Sudoeste 0 -- -- 36
2020-09-30 10:00:00 19.3 3 Nordeste 10 Este 0 -- -- 46
2020-09-30 09:00:00 16.2 3 Este 8 Nordeste 0 -- -- 48
2020-09-30 08:00:00 15.5 3 Este 6 Nordeste 0 -- -- 48
2020-09-30 07:00:00 14.4 3 Nordeste 4 Nordeste 0 -- -- 53
2020-09-30 06:00:00 15.5 3 Nordeste 6 Nordeste 0 -- -- 50
2020-09-30 05:00:00 16.7 4 Este 6 Este 0 -- -- 48
2020-09-30 04:00:00 17.8 4 Este 8 Este 0 -- -- 42
2020-09-30 03:00:00 18.3 3 Este 8 Este 0 -- -- 40
2020-09-30 02:00:00 16.8 3 Este 6 Este 0 -- -- 45
2020-09-30 01:00:00 17.7 3 Nordeste 6 Nordeste 0 -- -- 45
2020-09-30 00:00:00 19.8 5 Nordeste 9 Nordeste 0 -- -- 41
2020-09-29 23:00:00 18.8 4 Nordeste 8 Nordeste 0 -- -- 45
2020-09-29 22:00:00 19.3 5 Norte 8 Noroeste 0 -- -- 41
2020-09-29 21:00:00 19.4 4 Noroeste 8 Noroeste 0 -- -- 40
2020-09-29 20:00:00 24.9 3 Sudoeste 17 Sudoeste 0 -- -- 30
2020-09-29 19:00:00 27.3 11 Sudoeste 19 Sudoeste 0 -- -- 26
2020-09-29 18:00:00 28.3 6 Sudoeste 14 Sudoeste 0 -- -- 22
2020-09-29 17:00:00 28 5 Noroeste 14 Oeste 0 -- -- 23
2020-09-29 16:00:00 27.9 6 Sudoeste 18 Sudoeste 0 -- -- 23
2020-09-29 15:00:00 28 5 Sur 14 Sudoeste 0 -- -- 23
2020-09-29 14:00:00 -- -- -- -- -- -- -- -- --
2020-09-29 13:00:00 -- -- -- -- -- -- -- -- --
2020-09-29 12:00:00 -- -- -- -- -- -- -- -- --
2020-09-29 11:00:00 -- -- -- -- -- -- -- -- --
2020-09-29 10:00:00 19.2 7 Este 17 Nordeste 0 -- -- 33
2020-09-29 09:00:00 16.7 5 Este 13 Este 0 -- -- 36
2020-09-29 08:00:00 16.9 5 Este 14 Nordeste 0 -- -- 34
2020-09-29 07:00:00 17 5 Este 18 Este 0 -- -- 34
2020-09-29 06:00:00 17.4 9 Nordeste 19 Este 0 -- -- 35
2020-09-29 05:00:00 17.5 6 Este 17 Nordeste 0 -- -- 36
2020-09-29 04:00:00 17.2 6 Este 14 Nordeste 0 -- -- 42
2020-09-29 03:00:00 16.5 3 Este 9 Nordeste 0 -- -- 47
2020-09-29 02:00:00 16.9 3 Este 10 Este 0 -- -- 47
2020-09-29 01:00:00 18.1 6 Nordeste 10 Nordeste 0 -- -- 43
2020-09-29 00:00:00 17.2 5 Nordeste 8 Nordeste 0 -- -- 48
2020-09-28 23:00:00 18 4 Nordeste 7 Norte 0 -- -- 44
2020-09-28 22:00:00 19.1 5 Norte 8 Norte 0 -- -- 43
2020-09-28 21:00:00 18.5 4 Norte 6 Norte 0 -- -- 43
2020-09-28 20:00:00 22 0 Calma 7 Sudeste 0 -- -- 33
2020-09-28 19:00:00 25 2 Sudeste 9 Nordeste 0 -- -- 27
2020-09-28 18:00:00 26.3 3 Sudeste 14 Sudeste 0 -- -- 26
2020-09-28 17:00:00 26.2 3 Oeste 12 Sudoeste 0 -- -- 24
2020-09-28 16:00:00 25.3 8 Nordeste 14 Nordeste 0 -- -- 26
2020-09-28 15:00:00 25 5 Sudeste 16 Este 0 -- -- 29
2020-09-28 14:00:00 23.3 7 Nordeste 15 Este 0 -- -- 34
2020-09-28 13:00:00 22.7 6 Sudeste 18 Este 0 -- -- 31
2020-09-28 12:00:00 20.9 6 Este 19 Nordeste 0 -- -- 34
2020-09-28 11:00:00 18.6 8 Este 23 Este 0 -- -- 39
2020-09-28 10:00:00 15.6 10 Este 22 Nordeste 0 -- -- 47
2020-09-28 09:00:00 14.2 10 Nordeste 21 Este 0 -- -- 49
2020-09-28 08:00:00 13.9 8 Este 19 Nordeste 0 -- -- 51
2020-09-28 07:00:00 14.1 9 Nordeste 18 Nordeste 0 -- -- 51
2020-09-28 06:00:00 14.4 8 Este 16 Nordeste 0 -- -- 52
2020-09-28 05:00:00 14.4 5 Este 14 Este 0 -- -- 51
2020-09-28 04:00:00 15 5 Este 16 Nordeste 0 -- -- 51
2020-09-28 03:00:00 15.2 4 Este 13 Este 0 -- -- 53
2020-09-28 02:00:00 15.5 5 Este 15 Este 0 -- -- 55
2020-09-28 01:00:00 16 5 Este 15 Este 0 -- -- 61
2020-09-28 00:00:00 15.8 4 Este 9 Sudeste 0 -- -- 66
2020-09-27 23:00:00 16.5 6 Nordeste 10 Nordeste 0 -- -- 64
2020-09-27 22:00:00 16.3 0 Calma 5 Oeste 0 -- -- 66
2020-09-27 21:00:00 19.1 3 Sudoeste 13 Sudoeste 0 -- -- 55
2020-09-27 20:00:00 22 10 Sudoeste 19 Sudoeste 0 -- -- 47
2020-09-27 19:00:00 23.9 12 Sudoeste 21 Sudoeste 0 -- -- 42
2020-09-27 18:00:00 24.2 11 Oeste 24 Oeste 0 -- -- 42
2020-09-27 17:00:00 24.6 10 Sudoeste 24 Sudoeste 0 -- -- 42
2020-09-27 16:00:00 23.6 7 Norte 18 Oeste 0 -- -- 46
2020-09-27 15:00:00 23.3 5 Sur 20 Sudoeste 0 -- -- 46
2020-09-27 14:00:00 22.2 11 Sudoeste 20 Sudoeste 0 -- -- 51
2020-09-27 13:00:00 21.2 8 Sudoeste 18 Sudoeste 0 -- -- 56
2020-09-27 12:00:00 19.9 6 Sudoeste 14 Sudoeste 0 -- -- 60
2020-09-27 11:00:00 17.5 3 Sudoeste 8 Sudoeste 0 -- -- 67
2020-09-27 10:00:00 14.7 5 Sudoeste 9 Oeste 0 -- -- 79
2020-09-27 09:00:00 12.4 4 Noroeste 12 Norte 0 -- -- 87
2020-09-27 08:00:00 13.4 8 Norte 19 Norte 0 -- -- 81
2020-09-27 07:00:00 13.7 13 Norte 22 Norte 0 -- -- 81
2020-09-27 06:00:00 14.2 15 Noroeste 37 Noroeste 0 -- -- 78
2020-09-27 05:00:00 14.3 12 Noroeste 35 Noroeste 0 -- -- 78
2020-09-27 04:00:00 14.5 17 Oeste 29 Oeste 0 -- -- 76
2020-09-27 03:00:00 14.6 17 Noroeste 35 Oeste 0 -- -- 75
2020-09-27 02:00:00 14.8 12 Noroeste 30 Noroeste 0 -- -- 72
2020-09-27 01:00:00 15.8 15 Noroeste 29 Oeste 0 -- -- 66
2020-09-27 00:00:00 16.3 9 Noroeste 36 Oeste 0 -- -- 63
2020-09-26 23:00:00 17.2 17 Noroeste 31 Noroeste 0 -- -- 58
2020-09-26 22:00:00 17.9 15 Noroeste 38 Oeste 0 -- -- 54
2020-09-26 21:00:00 18.5 17 Noroeste 30 Noroeste 0 -- -- 49
2020-09-26 20:00:00 19.8 12 Noroeste 27 Norte 0 -- -- 41
2020-09-26 19:00:00 21.1 11 Noroeste 26 Noroeste 0 -- -- 36
2020-09-26 18:00:00 21.9 14 Noroeste 26 Noroeste 0 -- -- 36
2020-09-26 17:00:00 22.6 10 Noroeste 23 Noroeste 0 -- -- 36
2020-09-26 16:00:00 22.6 10 Oeste 27 Oeste 0 -- -- 37
2020-09-26 15:00:00 21.1 14 Sudoeste 26 Sudoeste 0 -- -- 39
2020-09-26 14:00:00 20 15 Sudoeste 23 Sudoeste 0 -- -- 42
2020-09-26 13:00:00 18.9 12 Sudoeste 23 Sudoeste 0 -- -- 46
2020-09-26 12:00:00 17.3 9 Oeste 18 Oeste 0 -- -- 48
2020-09-26 11:00:00 15.6 4 Oeste 9 Noroeste 0 -- -- 53
2020-09-26 10:00:00 14 3 Sudoeste 8 Este 0 -- -- 55
2020-09-26 09:00:00 10 0 Calma 4 Este 0 -- -- 70
2020-09-26 08:00:00 10.1 3 Nordeste 9 Nordeste 0 -- -- 68
2020-09-26 07:00:00 11.8 6 Nordeste 10 Este 0 -- -- 58
2020-09-26 06:00:00 11.9 8 Nordeste 12 Nordeste 0 -- -- 59
2020-09-26 05:00:00 12 6 Nordeste 11 Nordeste 0 -- -- 59
2020-09-26 04:00:00 11.7 7 Nordeste 12 Nordeste 0 -- -- 61
2020-09-26 03:00:00 11.5 5 Este 15 Nordeste 0 -- -- 62
2020-09-26 02:00:00 11.8 3 Este 9 Este 0 -- -- 61
2020-09-26 01:00:00 13.4 3 Este 15 Norte 0 -- -- 55
2020-09-26 00:00:00 14.4 11 Norte 17 Norte 0 -- -- 52
2020-09-25 23:00:00 15.1 9 Norte 23 Norte 0 -- -- 48
2020-09-25 22:00:00 15.5 7 Noroeste 31 Noroeste 0 -- -- 46
2020-09-25 21:00:00 16.4 11 Noroeste 26 Oeste 0 -- -- 45
2020-09-25 20:00:00 17.5 13 Noroeste 28 Norte 0 -- -- 42
2020-09-25 19:00:00 18.5 14 Noroeste 27 Noroeste 0 -- -- 39
2020-09-25 18:00:00 20.2 14 Noroeste 33 Oeste 0 -- -- 35
2020-09-25 17:00:00 20.1 17 Noroeste 35 Noroeste 0 -- -- 35
2020-09-25 16:00:00 19.9 18 Noroeste 33 Noroeste 0 -- -- 35
2020-09-25 15:00:00 19.5 14 Norte 32 Noroeste 0 -- -- 37
2020-09-25 14:00:00 18 16 Noroeste 34 Noroeste 0 -- -- 41
2020-09-25 13:00:00 16.9 18 Noroeste 41 Noroeste 0 -- -- 44
2020-09-25 12:00:00 15.6 17 Noroeste 36 Oeste 0 -- -- 48
2020-09-25 11:00:00 14.3 18 Noroeste 41 Noroeste 0 -- -- 58
2020-09-25 10:00:00 13.5 17 Noroeste 36 Noroeste 0 -- -- 63
2020-09-25 09:00:00 12.2 19 Noroeste 30 Noroeste 0 -- -- 72
2020-09-25 08:00:00 12 17 Noroeste 30 Noroeste 0 -- -- 75
2020-09-25 07:00:00 12.6 17 Noroeste 33 Noroeste 0 -- -- 73
2020-09-25 06:00:00 13 15 Noroeste 40 Noroeste 0 -- -- 70
2020-09-25 05:00:00 12.4 4 Sudoeste 23 Sudoeste 0 -- -- 75
2020-09-25 04:00:00 11.8 4 Oeste 20 Sur 0 -- -- 78
2020-09-25 03:00:00 13.7 10 Oeste 24 Oeste 0 -- -- 70
2020-09-25 02:00:00 14.6 13 Noroeste 21 Noroeste 0 -- -- 63
2020-09-25 01:00:00 14.8 12 Noroeste 21 Noroeste 0 -- -- 67
2020-09-25 00:00:00 15.8 6 Oeste 24 Oeste 0 -- -- 66
2020-09-24 23:00:00 16.8 13 Noroeste 25 Noroeste 0 -- -- 68
2020-09-24 22:00:00 18.3 14 Oeste 23 Oeste 0 -- -- 66
2020-09-24 21:00:00 18.8 15 Oeste 23 Sudoeste 0 -- -- 64
2020-09-24 20:00:00 20.2 17 Oeste 40 Oeste 0 -- -- 60
2020-09-24 19:00:00 21.5 21 Oeste 37 Oeste 0 -- -- 63
2020-09-24 18:00:00 21.3 26 Oeste 38 Oeste 0 -- -- 69
2020-09-24 17:00:00 20.4 16 Oeste 28 Oeste 0 -- -- 80
2020-09-24 16:00:00 19.4 13 Oeste 35 Sudoeste 0.4 -- -- 84
2020-09-24 15:00:00 20.2 20 Sudoeste 33 Oeste 0 -- -- 85
2020-09-24 14:00:00 20.1 22 Sudoeste 34 Sudoeste 0 -- -- 80
2020-09-24 13:00:00 19.2 18 Oeste 27 Oeste 0 -- -- 82
2020-09-24 12:00:00 18.2 17 Sudoeste 26 Sudoeste 0 -- -- 90
2020-09-24 11:00:00 17.1 14 Oeste 31 Oeste 0 -- -- 98
2020-09-24 10:00:00 16.7 16 Sudoeste 26 Sudoeste 0 -- -- 98
2020-09-24 09:00:00 16.6 16 Sudoeste 24 Sudoeste 0 -- -- 98
2020-09-24 08:00:00 16.6 14 Oeste 24 Oeste 0 -- -- 98
2020-09-24 07:00:00 16.7 6 Sudoeste 17 Sudoeste 0 -- -- 98
2020-09-24 06:00:00 16.8 12 Sudoeste 18 Sudoeste 0 -- -- 97
2020-09-24 05:00:00 17.1 10 Sudoeste 18 Sudoeste 0 -- -- 97
2020-09-24 04:00:00 17.1 7 Oeste 14 Sudoeste 0 -- -- 96
2020-09-24 03:00:00 17 5 Oeste 12 Oeste 0 -- -- 96
2020-09-24 02:00:00 17 9 Oeste 13 Oeste 0 -- -- 96
2020-09-24 01:00:00 16.8 6 Oeste 15 Oeste 0 -- -- 94
2020-09-24 00:00:00 16.9 5 Oeste 10 Sudoeste 0 -- -- 92
2020-09-23 23:00:00 17.6 6 Sudoeste 13 Noroeste 0 -- -- 88
2020-09-23 22:00:00 18.3 7 Oeste 15 Oeste 0 -- -- 83
2020-09-23 21:00:00 18.7 7 Oeste 19 Oeste 0 -- -- 78
2020-09-23 20:00:00 19.4 13 Oeste 34 Oeste 0 -- -- 75
2020-09-23 19:00:00 21.7 19 Oeste 31 Sudoeste 0 -- -- 60
2020-09-23 18:00:00 22.8 18 Sudoeste 29 Oeste 0 -- -- 55
2020-09-23 17:00:00 22.7 18 Oeste 31 Sudoeste 0 -- -- 54
2020-09-23 16:00:00 22.7 17 Oeste 29 Sudoeste 0 -- -- 54
2020-09-23 15:00:00 23 17 Sudoeste 36 Sudoeste 0 -- -- 53
2020-09-23 14:00:00 21.8 15 Sudoeste 28 Sudoeste 0 -- -- 58
2020-09-23 13:00:00 20.2 13 Oeste 22 Oeste 0 -- -- 64
2020-09-23 12:00:00 20.2 15 Sudoeste 23 Sudoeste 0 -- -- 69
2020-09-23 11:00:00 18 12 Sudoeste 17 Sudoeste 0 -- -- 87
2020-09-23 10:00:00 16.8 8 Sudoeste 15 Sudoeste 0 -- -- 96
2020-09-23 09:00:00 16.4 7 Sudoeste 12 Oeste 0 -- -- 96
2020-09-23 08:00:00 16.1 5 Oeste 14 Sudoeste 0 -- -- 95
2020-09-23 07:00:00 16.2 9 Sudoeste 17 Sudoeste 0 -- -- 92
2020-09-23 06:00:00 16.9 9 Sudoeste 15 Sudoeste 0 -- -- 85
2020-09-23 05:00:00 17.1 2 Norte 9 Noroeste 0 -- -- 82
2020-09-23 04:00:00 17.8 5 Noroeste 9 Noroeste 0 -- -- 78
2020-09-23 03:00:00 18.3 5 Oeste 10 Oeste 0 -- -- 77
2020-09-23 02:00:00 18.7 5 Oeste 8 Oeste 0 -- -- 74
2020-09-23 01:00:00 19 5 Sudoeste 10 Sudoeste 0 -- -- 71
2020-09-23 00:00:00 19.4 0 Calma 7 Norte 0 -- -- 68
2020-09-22 23:00:00 20 3 Noroeste 18 Noroeste 0 -- -- 66
2020-09-22 22:00:00 20 6 Oeste 17 Sudoeste 0 -- -- 67
2020-09-22 21:00:00 20.6 10 Sudoeste 18 Sudoeste 0 -- -- 64
2020-09-22 20:00:00 22.1 12 Sudoeste 24 Sudoeste 0 -- -- 59
2020-09-22 19:00:00 23.7 14 Sudoeste 26 Sudoeste 0 -- -- 53
2020-09-22 18:00:00 24.4 15 Sudoeste 26 Sudoeste 0 -- -- 51
2020-09-22 17:00:00 24.5 15 Sudoeste 27 Oeste 0 -- -- 51
2020-09-22 16:00:00 24.3 15 Sudoeste 26 Sudoeste 0 -- -- 52
2020-09-22 15:00:00 23.8 10 Sudoeste 24 Sudoeste 0 -- -- 52
2020-09-22 14:00:00 23.1 15 Sudoeste 27 Sudoeste 0 -- -- 56
2020-09-22 13:00:00 21.7 10 Sur 22 Sudoeste 0 -- -- 60
2020-09-22 12:00:00 19 9 Oeste 17 Sudoeste 0 -- -- 68
2020-09-22 11:00:00 17.4 11 Sudoeste 16 Sudoeste 0 -- -- 74
2020-09-22 10:00:00 14.7 5 Sudoeste 9 Sudoeste 0 -- -- 88
2020-09-22 09:00:00 13.1 2 Sudeste 5 Sudeste 0 -- -- 92
2020-09-22 08:00:00 12.8 0 Calma 3 Sudeste 0 -- -- 90
2020-09-22 07:00:00 13.1 0 Calma 3 Norte 0 -- -- 86
2020-09-22 06:00:00 14.2 0 Calma 6 Norte 0 -- -- 81
2020-09-22 05:00:00 14.5 0 Calma 7 Norte 0 -- -- 78
2020-09-22 04:00:00 16.1 4 Noroeste 13 Norte 0 -- -- 71
2020-09-22 03:00:00 16.9 8 Noroeste 13 Noroeste 0 -- -- 68
2020-09-22 02:00:00 17.5 8 Noroeste 14 Norte 0 -- -- 64
2020-09-22 01:00:00 17.2 6 Noroeste 12 Noroeste 0 -- -- 63
2020-09-22 00:00:00 16 3 Noroeste 5 Noroeste 0 -- -- 76
2020-09-21 23:00:00 17.9 4 Noroeste 9 Norte 0 -- -- 57
2020-09-21 22:00:00 18.4 3 Noroeste 10 Noroeste 0 -- -- 55
2020-09-21 21:00:00 20.1 6 Oeste 15 Oeste 0 -- -- 51
2020-09-21 20:00:00 22.4 9 Oeste 23 Oeste 0 -- -- 45
2020-09-21 19:00:00 23.7 17 Oeste 28 Oeste 0 -- -- 40
2020-09-21 18:00:00 24.3 16 Oeste 36 Oeste 0 -- -- 42
2020-09-21 17:00:00 24.1 12 Oeste 25 Oeste 0 -- -- 45
2020-09-21 16:00:00 23.5 12 Sudoeste 23 Sudoeste 0 -- -- 48
2020-09-21 15:00:00 22.8 9 Sudoeste 22 Sudoeste 0 -- -- 51
2020-09-21 14:00:00 21.7 12 Sudoeste 22 Sudoeste 0 -- -- 55
2020-09-21 13:00:00 20.7 10 Oeste 22 Oeste 0 -- -- 57
2020-09-21 12:00:00 19.5 10 Sudoeste 18 Sudoeste 0 -- -- 68
2020-09-21 11:00:00 17.5 4 Sudoeste 8 Sudoeste 0 -- -- 81
2020-09-21 10:00:00 15.4 3 Sur 5 Sur 0 -- -- 90
2020-09-21 09:00:00 13.4 0 Calma 8 Sudeste 0 -- -- 94
2020-09-21 08:00:00 13.5 4 Sudeste 8 Sudeste 0 -- -- 92
2020-09-21 07:00:00 13.1 3 Nordeste 6 Nordeste 0 -- -- 91
2020-09-21 06:00:00 13.2 4 Norte 6 Nordeste 0 -- -- 89
2020-09-21 05:00:00 14.4 3 Sudeste 9 Nordeste 0 -- -- 84
2020-09-21 04:00:00 15 6 Noroeste 8 Noroeste 0 -- -- 82
2020-09-21 03:00:00 15.7 6 Norte 9 Noroeste 0 -- -- 80
2020-09-21 02:00:00 16.5 4 Norte 13 Norte 0 -- -- 75
2020-09-21 01:00:00 17 6 Norte 12 Norte 0 -- -- 71
2020-09-21 00:00:00 17 5 Norte 9 Noroeste 0 -- -- 70
2020-09-20 23:00:00 17.8 4 Norte 11 Noroeste 0 -- -- 70
2020-09-20 22:00:00 17.5 2 Norte 9 Noroeste 0 -- -- 76
2020-09-20 21:00:00 19 0 Calma 15 Oeste 0 -- -- 68
2020-09-20 20:00:00 21.3 10 Oeste 24 Oeste 0 -- -- 59
2020-09-20 19:00:00 22.2 16 Oeste 28 Oeste 0 -- -- 56
2020-09-20 18:00:00 22.4 15 Oeste 24 Oeste 0 -- -- 60
2020-09-20 17:00:00 21.4 15 Oeste 34 Sudoeste 0 -- -- 65
2020-09-20 16:00:00 21.6 13 Oeste 31 Sudoeste 0 -- -- 65
2020-09-20 15:00:00 21.5 18 Sudoeste 30 Sudoeste 0 -- -- 68
2020-09-20 14:00:00 19.3 14 Sudoeste 23 Sudoeste 0 -- -- 78
2020-09-20 13:00:00 16.9 11 Oeste 19 Oeste 0 -- -- 92
2020-09-20 12:00:00 16.2 13 Sudoeste 20 Sudoeste 0 -- -- 92
2020-09-20 11:00:00 16 12 Sudoeste 19 Sudoeste 0 -- -- 92
2020-09-20 10:00:00 15.7 11 Sudoeste 18 Sudoeste 0 -- -- 97
2020-09-20 09:00:00 15.3 10 Sudoeste 14 Sudoeste 0 -- -- 98
2020-09-20 08:00:00 14.9 9 Sudoeste 15 Sudoeste 0 -- -- 97
2020-09-20 07:00:00 14.7 8 Sudoeste 17 Oeste 0 -- -- 97
2020-09-20 06:00:00 14.5 10 Sudoeste 14 Oeste 0 -- -- 95
2020-09-20 05:00:00 14.9 0 Calma 15 Sudoeste 0 -- -- 92
2020-09-20 04:00:00 15.4 8 Sudoeste 16 Sudoeste 0 -- -- 91
2020-09-20 03:00:00 15.8 3 Sur 11 Oeste 0 -- -- 86
2020-09-20 02:00:00 16.6 8 Oeste 15 Oeste 0 -- -- 83
2020-09-20 01:00:00 16.8 6 Oeste 17 Sudoeste 0 -- -- 81
2020-09-20 00:00:00 17.3 9 Sudoeste 13 Sudoeste 0 -- -- 76